John Murtha Johnstown Cambria County Airport Johnstown US
ICAO: KJST
IATA: JST
Category: Medium
Scheduled Services: Yes

Elevation: 2284 ft
TransAlt. 18000 ft.

Airport Communications:
ATIS:118.325
CLEVELAND CNTR:121.2
CTAF:125.75
GND:121.6
KEYSTONE OPS ARNG:36.5
ALTOONA RDO:122.65
TWR:125.75
UNICOM:122.95

KJST Zoom In..

If you have problems with the map follow the link
https://www.worldairports.se/pages/airport.php?
ICAO=KJST

Runways:

(A) RW 05 length 4386 ft width 100 ft
---- / hdg 49

(B) RW 15 length 7003 ft width 150 ft
---- / hdg 154

(C) RW 23 length 4386 ft width 100 ft
---- / hdg 229

(D) RW 33 length 7003 ft width 150 ft
ILS 110.10 / hdg 334

Location; KJST
Day. 22 / Time. 16.54 Zulu
* Altimeter: 30.33
* Temperature: 01° c. 33.8°f.
* Wind from: 310° Speed 03 kn.
Dewpoint: -06° c.
Visibility: 10 Statute Miles.
Clouds: Clear (automated report).

KJST 221654Z AUTO 31003KT 10SM CLR 01/M06 A3033 RMK AO2 SLP293 T00111056


Wind From 310°
Speed 03 kn.

 
 
jpsmedia.com for Web Design worldairports.se 2019   terms of use